sensor_id;sensor_type;location;lat;lon;timestamp;temperature;humidity
73568;SHT30;61847;54.994;73.310;2022-08-01T00:01:43;19.38;83.52
73568;SHT30;61847;54.994;73.310;2022-08-01T00:04:09;19.39;83.46
73568;SHT30;61847;54.994;73.310;2022-08-01T00:06:35;19.36;83.68
73568;SHT30;61847;54.994;73.310;2022-08-01T00:09:07;19.36;83.72
73568;SHT30;61847;54.994;73.310;2022-08-01T00:11:34;19.45;83.48
73568;SHT30;61847;54.994;73.310;2022-08-01T00:14:10;19.48;83.29
73568;SHT30;61847;54.994;73.310;2022-08-01T00:16:36;19.43;83.57
73568;SHT30;61847;54.994;73.310;2022-08-01T00:19:03;19.41;83.77
73568;SHT30;61847;54.994;73.310;2022-08-01T00:21:29;19.36;83.83
73568;SHT30;61847;54.994;73.310;2022-08-01T00:23:56;19.41;83.80
73568;SHT30;61847;54.994;73.310;2022-08-01T00:26:25;19.41;83.92
73568;SHT30;61847;54.994;73.310;2022-08-01T00:28:51;19.48;83.68
73568;SHT30;61847;54.994;73.310;2022-08-01T00:31:17;19.50;83.61
73568;SHT30;61847;54.994;73.310;2022-08-01T00:33:57;19.43;83.84
73568;SHT30;61847;54.994;73.310;2022-08-01T00:36:26;19.48;83.83
73568;SHT30;61847;54.994;73.310;2022-08-01T00:38:52;19.59;83.46
73568;SHT30;61847;54.994;73.310;2022-08-01T00:41:19;19.60;83.37
73568;SHT30;61847;54.994;73.310;2022-08-01T00:43:45;19.67;83.21
73568;SHT30;61847;54.994;73.310;2022-08-01T00:46:11;19.65;83.28
73568;SHT30;61847;54.994;73.310;2022-08-01T00:48:38;19.60;83.42
73568;SHT30;61847;54.994;73.310;2022-08-01T00:51:04;19.66;83.34
73568;SHT30;61847;54.994;73.310;2022-08-01T00:53:31;19.62;83.36
73568;SHT30;61847;54.994;73.310;2022-08-01T00:55:57;19.65;83.46
73568;SHT30;61847;54.994;73.310;2022-08-01T00:58:24;19.66;83.41
73568;SHT30;61847;54.994;73.310;2022-08-01T01:00:50;19.67;83.28
73568;SHT30;61847;54.994;73.310;2022-08-01T01:03:27;19.67;83.57
73568;SHT30;61847;54.994;73.310;2022-08-01T01:08:43;19.65;83.57
73568;SHT30;61847;54.994;73.310;2022-08-01T01:11:31;19.71;83.49
73568;SHT30;61847;54.994;73.310;2022-08-01T01:14:04;19.70;83.61
73568;SHT30;61847;54.994;73.310;2022-08-01T01:16:34;19.79;83.23
73568;SHT30;61847;54.994;73.310;2022-08-01T01:19:04;19.79;83.38
73568;SHT30;61847;54.994;73.310;2022-08-01T01:24:39;19.89;83.26
73568;SHT30;61847;54.994;73.310;2022-08-01T01:27:27;19.94;83.03
73568;SHT30;61847;54.994;73.310;2022-08-01T01:30:01;20.01;82.69
73568;SHT30;61847;54.994;73.310;2022-08-01T01:32:38;20.16;82.40
73568;SHT30;61847;54.994;73.310;2022-08-01T01:35:09;20.18;82.22
73568;SHT30;61847;54.994;73.310;2022-08-01T01:37:38;20.25;82.08
73568;SHT30;61847;54.994;73.310;2022-08-01T01:40:07;20.20;82.02
73568;SHT30;61847;54.994;73.310;2022-08-01T01:42:45;20.27;81.86
73568;SHT30;61847;54.994;73.310;2022-08-01T01:45:24;20.31;81.72
73568;SHT30;61847;54.994;73.310;2022-08-01T01:47:52;20.35;81.63
73568;SHT30;61847;54.994;73.310;2022-08-01T01:50:20;20.36;81.52
73568;SHT30;61847;54.994;73.310;2022-08-01T01:52:48;20.39;81.58
73568;SHT30;61847;54.994;73.310;2022-08-01T01:55:22;20.44;81.27
73568;SHT30;61847;54.994;73.310;2022-08-01T01:57:50;20.42;81.10
73568;SHT30;61847;54.994;73.310;2022-08-01T02:00:26;20.45;81.06
73568;SHT30;61847;54.994;73.310;2022-08-01T02:02:54;20.52;80.63
73568;SHT30;61847;54.994;73.310;2022-08-01T02:05:33;20.49;80.77
73568;SHT30;61847;54.994;73.310;2022-08-01T02:08:02;20.51;80.60
73568;SHT30;61847;54.994;73.310;2022-08-01T02:10:36;20.56;80.54
73568;SHT30;61847;54.994;73.310;2022-08-01T02:13:04;20.51;80.49
73568;SHT30;61847;54.994;73.310;2022-08-01T02:15:37;20.57;80.49
73568;SHT30;61847;54.994;73.310;2022-08-01T02:18:24;20.69;80.14
73568;SHT30;61847;54.994;73.310;2022-08-01T02:20:54;20.69;80.00
73568;SHT30;61847;54.994;73.310;2022-08-01T02:23:23;20.68;80.37
73568;SHT30;61847;54.994;73.310;2022-08-01T02:25:52;20.72;80.25
73568;SHT30;61847;54.994;73.310;2022-08-01T02:28:33;20.80;80.30
73568;SHT30;61847;54.994;73.310;2022-08-01T02:31:03;20.89;79.96
73568;SHT30;61847;54.994;73.310;2022-08-01T02:33:39;20.89;79.53
73568;SHT30;61847;54.994;73.310;2022-08-01T02:36:19;20.89;79.68
73568;SHT30;61847;54.994;73.310;2022-08-01T02:38:46;20.90;79.67
73568;SHT30;61847;54.994;73.310;2022-08-01T02:41:19;20.87;79.48
73568;SHT30;61847;54.994;73.310;2022-08-01T02:43:49;20.93;79.70
73568;SHT30;61847;54.994;73.310;2022-08-01T02:46:25;20.90;79.59
73568;SHT30;61847;54.994;73.310;2022-08-01T02:48:56;20.97;79.58
73568;SHT30;61847;54.994;73.310;2022-08-01T02:51:25;21.03;79.38
73568;SHT30;61847;54.994;73.310;2022-08-01T02:53:53;21.11;79.33
73568;SHT30;61847;54.994;73.310;2022-08-01T02:56:21;21.17;79.45
73568;SHT30;61847;54.994;73.310;2022-08-01T02:58:49;21.21;79.27
73568;SHT30;61847;54.994;73.310;2022-08-01T03:01:30;21.30;79.22
73568;SHT30;61847;54.994;73.310;2022-08-01T03:03:57;21.40;78.97
73568;SHT30;61847;54.994;73.310;2022-08-01T03:06:36;21.45;78.79
73568;SHT30;61847;54.994;73.310;2022-08-01T03:09:04;21.58;78.28
73568;SHT30;61847;54.994;73.310;2022-08-01T03:11:32;21.72;78.33
73568;SHT30;61847;54.994;73.310;2022-08-01T03:14:02;21.78;78.25
73568;SHT30;61847;54.994;73.310;2022-08-01T03:16:33;21.71;78.44
73568;SHT30;61847;54.994;73.310;2022-08-01T03:19:02;21.69;78.27
73568;SHT30;61847;54.994;73.310;2022-08-01T03:21:29;21.75;78.03
73568;SHT30;61847;54.994;73.310;2022-08-01T03:23:58;21.82;77.52
73568;SHT30;61847;54.994;73.310;2022-08-01T03:26:31;21.86;77.68
73568;SHT30;61847;54.994;73.310;2022-08-01T03:29:02;21.97;77.11
73568;SHT30;61847;54.994;73.310;2022-08-01T03:31:34;21.95;76.95
73568;SHT30;61847;54.994;73.310;2022-08-01T03:34:02;22.03;76.62
73568;SHT30;61847;54.994;73.310;2022-08-01T03:36:30;22.09;76.65
73568;SHT30;61847;54.994;73.310;2022-08-01T03:39:00;22.17;76.55
73568;SHT30;61847;54.994;73.310;2022-08-01T03:41:32;22.23;76.19
73568;SHT30;61847;54.994;73.310;2022-08-01T03:44:15;22.23;75.05
73568;SHT30;61847;54.994;73.310;2022-08-01T03:46:46;22.36;75.52
73568;SHT30;61847;54.994;73.310;2022-08-01T03:49:25;22.41;75.14
73568;SHT30;61847;54.994;73.310;2022-08-01T03:51:52;22.47;75.27
73568;SHT30;61847;54.994;73.310;2022-08-01T03:54:30;22.30;75.19
73568;SHT30;61847;54.994;73.310;2022-08-01T03:57:00;22.33;75.20
73568;SHT30;61847;54.994;73.310;2022-08-01T03:59:28;22.27;74.84
73568;SHT30;61847;54.994;73.310;2022-08-01T04:01:56;22.33;75.23
73568;SHT30;61847;54.994;73.310;2022-08-01T04:04:23;22.16;75.82
73568;SHT30;61847;54.994;73.310;2022-08-01T04:06:50;22.03;75.84
73568;SHT30;61847;54.994;73.310;2022-08-01T04:09:20;21.97;76.13
73568;SHT30;61847;54.994;73.310;2022-08-01T04:11:48;21.95;76.00
73568;SHT30;61847;54.994;73.310;2022-08-01T04:14:14;21.92;76.46
73568;SHT30;61847;54.994;73.310;2022-08-01T04:16:41;22.03;75.93
73568;SHT30;61847;54.994;73.310;2022-08-01T04:19:07;22.20;75.96
73568;SHT30;61847;54.994;73.310;2022-08-01T04:21:39;22.21;75.06
73568;SHT30;61847;54.994;73.310;2022-08-01T04:24:10;22.27;75.20
73568;SHT30;61847;54.994;73.310;2022-08-01T04:26:39;22.33;75.05
73568;SHT30;61847;54.994;73.310;2022-08-01T04:29:19;22.34;74.87
73568;SHT30;61847;54.994;73.310;2022-08-01T04:31:48;22.32;74.91
73568;SHT30;61847;54.994;73.310;2022-08-01T04:34:19;22.26;74.55
73568;SHT30;61847;54.994;73.310;2022-08-01T04:36:47;22.33;74.39
73568;SHT30;61847;54.994;73.310;2022-08-01T04:39:15;22.40;74.28
73568;SHT30;61847;54.994;73.310;2022-08-01T04:41:45;22.29;74.42
73568;SHT30;61847;54.994;73.310;2022-08-01T04:44:14;22.21;74.94
73568;SHT30;61847;54.994;73.310;2022-08-01T04:46:42;22.17;74.58
73568;SHT30;61847;54.994;73.310;2022-08-01T04:49:10;22.20;74.78
73568;SHT30;61847;54.994;73.310;2022-08-01T04:51:49;22.21;75.17
73568;SHT30;61847;54.994;73.310;2022-08-01T04:54:16;22.20;75.19
73568;SHT30;61847;54.994;73.310;2022-08-01T04:56:43;22.39;74.69
73568;SHT30;61847;54.994;73.310;2022-08-01T04:59:19;22.37;74.56
73568;SHT30;61847;54.994;73.310;2022-08-01T05:02:12;22.57;73.79
73568;SHT30;61847;54.994;73.310;2022-08-01T05:04:41;22.78;73.07
73568;SHT30;61847;54.994;73.310;2022-08-01T05:07:08;22.91;72.41
73568;SHT30;61847;54.994;73.310;2022-08-01T05:09:45;22.91;72.83
73568;SHT30;61847;54.994;73.310;2022-08-01T05:12:14;22.90;73.10
73568;SHT30;61847;54.994;73.310;2022-08-01T05:14:41;22.94;72.51
73568;SHT30;61847;54.994;73.310;2022-08-01T05:17:12;22.95;72.75
73568;SHT30;61847;54.994;73.310;2022-08-01T05:19:39;23.11;72.07
73568;SHT30;61847;54.994;73.310;2022-08-01T05:22:08;23.09;72.02
73568;SHT30;61847;54.994;73.310;2022-08-01T05:24:35;23.09;72.47
73568;SHT30;61847;54.994;73.310;2022-08-01T05:27:12;22.92;72.90
73568;SHT30;61847;54.994;73.310;2022-08-01T05:29:39;22.82;72.62
73568;SHT30;61847;54.994;73.310;2022-08-01T05:32:06;22.90;72.95
73568;SHT30;61847;54.994;73.310;2022-08-01T05:34:32;22.85;72.92
73568;SHT30;61847;54.994;73.310;2022-08-01T05:36:58;22.78;72.96
73568;SHT30;61847;54.994;73.310;2022-08-01T05:39:30;22.68;73.27
73568;SHT30;61847;54.994;73.310;2022-08-01T05:41:59;22.48;73.94
73568;SHT30;61847;54.994;73.310;2022-08-01T05:44:25;22.41;74.46
73568;SHT30;61847;54.994;73.310;2022-08-01T05:46:51;22.32;74.69
73568;SHT30;61847;54.994;73.310;2022-08-01T05:49:18;22.24;74.83
73568;SHT30;61847;54.994;73.310;2022-08-01T05:51:44;22.21;75.04
73568;SHT30;61847;54.994;73.310;2022-08-01T05:54:10;22.21;75.34
73568;SHT30;61847;54.994;73.310;2022-08-01T05:56:37;22.23;74.76
73568;SHT30;61847;54.994;73.310;2022-08-01T05:59:03;22.32;74.76
73568;SHT30;61847;54.994;73.310;2022-08-01T06:01:30;22.37;74.21
73568;SHT30;61847;54.994;73.310;2022-08-01T06:03:56;22.53;73.94
73568;SHT30;61847;54.994;73.310;2022-08-01T06:06:22;22.75;72.89
73568;SHT30;61847;54.994;73.310;2022-08-01T06:08:49;22.78;73.06
73568;SHT30;61847;54.994;73.310;2022-08-01T06:11:16;22.87;72.22
73568;SHT30;61847;54.994;73.310;2022-08-01T06:13:42;22.95;72.04
73568;SHT30;61847;54.994;73.310;2022-08-01T06:16:08;22.79;72.54
73568;SHT30;61847;54.994;73.310;2022-08-01T06:18:34;22.61;73.07
73568;SHT30;61847;54.994;73.310;2022-08-01T06:21:00;22.71;73.90
73568;SHT30;61847;54.994;73.310;2022-08-01T06:23:27;22.71;73.08
73568;SHT30;61847;54.994;73.310;2022-08-01T06:25:53;22.68;73.34
73568;SHT30;61847;54.994;73.310;2022-08-01T06:28:21;22.69;72.74
73568;SHT30;61847;54.994;73.310;2022-08-01T06:30:47;22.65;72.53
73568;SHT30;61847;54.994;73.310;2022-08-01T06:33:14;22.67;72.65
73568;SHT30;61847;54.994;73.310;2022-08-01T06:35:40;22.84;72.62
73568;SHT30;61847;54.994;73.310;2022-08-01T06:38:06;22.79;72.47
73568;SHT30;61847;54.994;73.310;2022-08-01T06:40:33;22.88;72.36
73568;SHT30;61847;54.994;73.310;2022-08-01T06:42:59;22.91;72.29
73568;SHT30;61847;54.994;73.310;2022-08-01T06:45:35;22.81;72.45
73568;SHT30;61847;54.994;73.310;2022-08-01T06:48:08;22.85;72.02
73568;SHT30;61847;54.994;73.310;2022-08-01T06:50:34;22.91;72.14
73568;SHT30;61847;54.994;73.310;2022-08-01T06:53:01;23.02;70.94
73568;SHT30;61847;54.994;73.310;2022-08-01T06:55:27;23.06;70.60
73568;SHT30;61847;54.994;73.310;2022-08-01T06:57:54;23.03;71.53
73568;SHT30;61847;54.994;73.310;2022-08-01T07:00:21;22.98;72.01
73568;SHT30;61847;54.994;73.310;2022-08-01T07:02:50;22.88;71.96
73568;SHT30;61847;54.994;73.310;2022-08-01T07:05:20;23.12;71.07
73568;SHT30;61847;54.994;73.310;2022-08-01T07:07:49;23.22;71.00
73568;SHT30;61847;54.994;73.310;2022-08-01T07:10:16;23.26;70.80
73568;SHT30;61847;54.994;73.310;2022-08-01T07:12:43;23.30;71.33
73568;SHT30;61847;54.994;73.310;2022-08-01T07:15:10;23.09;72.08
73568;SHT30;61847;54.994;73.310;2022-08-01T07:17:38;22.96;72.00
73568;SHT30;61847;54.994;73.310;2022-08-01T07:20:13;23.02;71.37
73568;SHT30;61847;54.994;73.310;2022-08-01T07:22:40;22.90;71.62
73568;SHT30;61847;54.994;73.310;2022-08-01T07:25:07;22.81;72.34
73568;SHT30;61847;54.994;73.310;2022-08-01T07:27:36;22.95;72.01
73568;SHT30;61847;54.994;73.310;2022-08-01T07:30:04;22.94;71.89
73568;SHT30;61847;54.994;73.310;2022-08-01T07:32:30;23.13;71.53
73568;SHT30;61847;54.994;73.310;2022-08-01T07:34:57;23.23;70.64
73568;SHT30;61847;54.994;73.310;2022-08-01T07:37:23;23.57;70.13
73568;SHT30;61847;54.994;73.310;2022-08-01T07:39:50;23.56;69.47
73568;SHT30;61847;54.994;73.310;2022-08-01T07:42:16;23.70;69.35
73568;SHT30;61847;54.994;73.310;2022-08-01T07:44:42;23.84;69.33
73568;SHT30;61847;54.994;73.310;2022-08-01T07:47:11;23.71;68.92
73568;SHT30;61847;54.994;73.310;2022-08-01T07:49:37;23.64;69.25
73568;SHT30;61847;54.994;73.310;2022-08-01T07:52:03;23.68;69.18
73568;SHT30;61847;54.994;73.310;2022-08-01T07:54:31;23.75;69.04
73568;SHT30;61847;54.994;73.310;2022-08-01T07:56:57;23.70;69.67
73568;SHT30;61847;54.994;73.310;2022-08-01T07:59:24;23.66;69.13
73568;SHT30;61847;54.994;73.310;2022-08-01T08:01:59;23.78;68.94
73568;SHT30;61847;54.994;73.310;2022-08-01T08:04:26;23.94;68.15
73568;SHT30;61847;54.994;73.310;2022-08-01T08:06:53;23.91;68.68
73568;SHT30;61847;54.994;73.310;2022-08-01T08:09:23;23.88;69.13
73568;SHT30;61847;54.994;73.310;2022-08-01T08:11:50;24.00;68.52
73568;SHT30;61847;54.994;73.310;2022-08-01T08:14:22;23.98;67.64
73568;SHT30;61847;54.994;73.310;2022-08-01T08:16:50;23.74;68.42
73568;SHT30;61847;54.994;73.310;2022-08-01T08:19:17;23.54;67.75
73568;SHT30;61847;54.994;73.310;2022-08-01T08:21:44;23.74;67.82
73568;SHT30;61847;54.994;73.310;2022-08-01T08:24:11;24.01;67.47
73568;SHT30;61847;54.994;73.310;2022-08-01T08:27:06;24.00;66.81
73568;SHT30;61847;54.994;73.310;2022-08-01T08:29:33;24.12;66.40
73568;SHT30;61847;54.994;73.310;2022-08-01T08:32:00;23.71;68.85
73568;SHT30;61847;54.994;73.310;2022-08-01T08:34:28;23.32;68.64
73568;SHT30;61847;54.994;73.310;2022-08-01T08:36:55;22.96;68.54
73568;SHT30;61847;54.994;73.310;2022-08-01T08:39:22;22.47;69.00
73568;SHT30;61847;54.994;73.310;2022-08-01T08:41:49;22.43;69.87
73568;SHT30;61847;54.994;73.310;2022-08-01T08:44:19;22.50;69.49
73568;SHT30;61847;54.994;73.310;2022-08-01T08:47:01;22.50;69.09
73568;SHT30;61847;54.994;73.310;2022-08-01T08:49:28;22.44;68.75
73568;SHT30;61847;54.994;73.310;2022-08-01T08:51:59;22.51;68.78
73568;SHT30;61847;54.994;73.310;2022-08-01T08:54:27;22.91;67.52
73568;SHT30;61847;54.994;73.310;2022-08-01T08:56:54;22.85;68.18
73568;SHT30;61847;54.994;73.310;2022-08-01T08:59:21;23.20;66.38
73568;SHT30;61847;54.994;73.310;2022-08-01T09:01:48;22.98;66.67
73568;SHT30;61847;54.994;73.310;2022-08-01T09:04:14;23.29;65.40
73568;SHT30;61847;54.994;73.310;2022-08-01T09:06:40;23.16;65.00
73568;SHT30;61847;54.994;73.310;2022-08-01T09:09:09;22.92;65.62
73568;SHT30;61847;54.994;73.310;2022-08-01T09:11:36;22.75;65.99
73568;SHT30;61847;54.994;73.310;2022-08-01T09:14:16;22.67;65.99
73568;SHT30;61847;54.994;73.310;2022-08-01T09:17:07;22.68;66.02
73568;SHT30;61847;54.994;73.310;2022-08-01T09:19:42;22.58;66.26
73568;SHT30;61847;54.994;73.310;2022-08-01T09:22:14;22.72;65.42
73568;SHT30;61847;54.994;73.310;2022-08-01T09:25:07;22.99;65.10
73568;SHT30;61847;54.994;73.310;2022-08-01T09:27:43;23.32;64.64
73568;SHT30;61847;54.994;73.310;2022-08-01T09:30:15;23.51;63.85
73568;SHT30;61847;54.994;73.310;2022-08-01T09:32:59;23.46;63.10
73568;SHT30;61847;54.994;73.310;2022-08-01T09:35:36;23.24;62.41
73568;SHT30;61847;54.994;73.310;2022-08-01T09:40:52;23.42;62.47
73568;SHT30;61847;54.994;73.310;2022-08-01T09:43:25;23.63;62.46
73568;SHT30;61847;54.994;73.310;2022-08-01T09:46:09;23.74;62.20
73568;SHT30;61847;54.994;73.310;2022-08-01T09:49:11;24.08;62.79
73568;SHT30;61847;54.994;73.310;2022-08-01T09:51:41;24.00;61.43
73568;SHT30;61847;54.994;73.310;2022-08-01T09:54:08;24.14;60.95
73568;SHT30;61847;54.994;73.310;2022-08-01T09:56:41;24.18;60.84
73568;SHT30;61847;54.994;73.310;2022-08-01T09:59:08;24.24;60.75
73568;SHT30;61847;54.994;73.310;2022-08-01T10:01:48;24.35;60.81
73568;SHT30;61847;54.994;73.310;2022-08-01T10:04:20;24.33;61.17
73568;SHT30;61847;54.994;73.310;2022-08-01T10:06:50;24.39;61.80
73568;SHT30;61847;54.994;73.310;2022-08-01T10:09:30;24.22;61.84
73568;SHT30;61847;54.994;73.310;2022-08-01T10:12:03;24.45;61.01
73568;SHT30;61847;54.994;73.310;2022-08-01T10:14:30;24.64;60.60
73568;SHT30;61847;54.994;73.310;2022-08-01T10:17:02;24.88;59.60
73568;SHT30;61847;54.994;73.310;2022-08-01T10:19:30;25.29;58.37
73568;SHT30;61847;54.994;73.310;2022-08-01T10:22:00;25.14;59.80
73568;SHT30;61847;54.994;73.310;2022-08-01T10:24:31;25.11;59.21
73568;SHT30;61847;54.994;73.310;2022-08-01T10:27:03;24.60;60.25
73568;SHT30;61847;54.994;73.310;2022-08-01T10:29:35;24.39;60.04
73568;SHT30;61847;54.994;73.310;2022-08-01T10:32:04;24.19;60.36
73568;SHT30;61847;54.994;73.310;2022-08-01T10:34:33;24.12;60.45
73568;SHT30;61847;54.994;73.310;2022-08-01T10:37:05;24.55;59.69
73568;SHT30;61847;54.994;73.310;2022-08-01T10:39:36;24.70;58.16
73568;SHT30;61847;54.994;73.310;2022-08-01T10:42:03;24.72;58.51
73568;SHT30;61847;54.994;73.310;2022-08-01T10:44:33;24.81;58.66
73568;SHT30;61847;54.994;73.310;2022-08-01T10:47:06;25.04;57.06
73568;SHT30;61847;54.994;73.310;2022-08-01T10:49:39;24.98;57.38
73568;SHT30;61847;54.994;73.310;2022-08-01T10:52:06;24.67;58.65
73568;SHT30;61847;54.994;73.310;2022-08-01T10:54:39;24.67;57.34
73568;SHT30;61847;54.994;73.310;2022-08-01T10:57:15;24.49;56.78
73568;SHT30;61847;54.994;73.310;2022-08-01T10:59:51;24.64;56.48
73568;SHT30;61847;54.994;73.310;2022-08-01T11:02:28;24.90;55.63
73568;SHT30;61847;54.994;73.310;2022-08-01T11:05:01;25.07;54.73
73568;SHT30;61847;54.994;73.310;2022-08-01T11:07:48;25.25;54.17
73568;SHT30;61847;54.994;73.310;2022-08-01T11:13:02;25.53;53.81
73568;SHT30;61847;54.994;73.310;2022-08-01T11:15:34;25.72;52.41
73568;SHT30;61847;54.994;73.310;2022-08-01T11:18:03;25.90;52.38
73568;SHT30;61847;54.994;73.310;2022-08-01T11:20:34;26.12;52.48
73568;SHT30;61847;54.994;73.310;2022-08-01T11:41:29;24.19;58.16
73568;SHT30;61847;54.994;73.310;2022-08-01T11:44:00;24.02;58.21
73568;SHT30;61847;54.994;73.310;2022-08-01T11:46:53;23.68;57.05
73568;SHT30;61847;54.994;73.310;2022-08-01T11:54:51;23.18;59.42
73568;SHT30;61847;54.994;73.310;2022-08-01T11:57:21;23.23;57.42
73568;SHT30;61847;54.994;73.310;2022-08-01T11:59:49;23.12;58.06
73568;SHT30;61847;54.994;73.310;2022-08-01T12:02:18;23.12;56.47
73568;SHT30;61847;54.994;73.310;2022-08-01T12:04:46;23.15;56.73
73568;SHT30;61847;54.994;73.310;2022-08-01T12:07:14;23.12;56.91
73568;SHT30;61847;54.994;73.310;2022-08-01T12:09:40;23.19;56.47
73568;SHT30;61847;54.994;73.310;2022-08-01T12:12:07;23.06;57.41
73568;SHT30;61847;54.994;73.310;2022-08-01T12:14:34;23.09;57.96
73568;SHT30;61847;54.994;73.310;2022-08-01T12:17:00;22.87;57.68
73568;SHT30;61847;54.994;73.310;2022-08-01T12:19:27;22.84;56.71
73568;SHT30;61847;54.994;73.310;2022-08-01T12:22:13;22.51;55.93
73568;SHT30;61847;54.994;73.310;2022-08-01T12:24:45;22.67;55.22
73568;SHT30;61847;54.994;73.310;2022-08-01T12:27:23;22.71;54.62
73568;SHT30;61847;54.994;73.310;2022-08-01T12:29:50;22.60;52.98
73568;SHT30;61847;54.994;73.310;2022-08-01T12:32:37;22.58;54.29
73568;SHT30;61847;54.994;73.310;2022-08-01T12:35:25;22.88;52.88
73568;SHT30;61847;54.994;73.310;2022-08-01T12:37:54;22.67;54.10
73568;SHT30;61847;54.994;73.310;2022-08-01T12:40:21;22.67;55.17
73568;SHT30;61847;54.994;73.310;2022-08-01T12:42:50;23.03;54.29
73568;SHT30;61847;54.994;73.310;2022-08-01T12:45:23;23.36;53.12
73568;SHT30;61847;54.994;73.310;2022-08-01T12:47:52;23.77;52.01
73568;SHT30;61847;54.994;73.310;2022-08-01T12:50:21;23.43;52.70
73568;SHT30;61847;54.994;73.310;2022-08-01T12:52:48;22.98;53.69
73568;SHT30;61847;54.994;73.310;2022-08-01T12:55:26;22.82;54.34
73568;SHT30;61847;54.994;73.310;2022-08-01T12:58:09;22.60;54.80
73568;SHT30;61847;54.994;73.310;2022-08-01T13:00:39;22.65;55.21
73568;SHT30;61847;54.994;73.310;2022-08-01T13:08:32;22.33;55.85
73568;SHT30;61847;54.994;73.310;2022-08-01T13:11:08;22.18;56.45
73568;SHT30;61847;54.994;73.310;2022-08-01T13:13:46;22.03;58.07
73568;SHT30;61847;54.994;73.310;2022-08-01T13:16:13;21.89;57.28
73568;SHT30;61847;54.994;73.310;2022-08-01T13:18:40;21.50;58.47
73568;SHT30;61847;54.994;73.310;2022-08-01T13:21:17;21.44;58.15
73568;SHT30;61847;54.994;73.310;2022-08-01T13:24:06;21.44;58.60
73568;SHT30;61847;54.994;73.310;2022-08-01T13:26:54;21.47;58.16
73568;SHT30;61847;54.994;73.310;2022-08-01T13:29:36;21.41;58.22
73568;SHT30;61847;54.994;73.310;2022-08-01T13:32:18;21.30;58.54
73568;SHT30;61847;54.994;73.310;2022-08-01T13:34:45;21.28;58.75
73568;SHT30;61847;54.994;73.310;2022-08-01T13:37:14;21.30;58.94
73568;SHT30;61847;54.994;73.310;2022-08-01T13:39:44;21.20;58.91
73568;SHT30;61847;54.994;73.310;2022-08-01T13:42:12;21.17;59.08
73568;SHT30;61847;54.994;73.310;2022-08-01T13:44:48;21.14;59.44
73568;SHT30;61847;54.994;73.310;2022-08-01T13:47:15;21.13;59.76
73568;SHT30;61847;54.994;73.310;2022-08-01T13:49:43;21.19;58.92
73568;SHT30;61847;54.994;73.310;2022-08-01T13:52:09;21.30;58.74
73568;SHT30;61847;54.994;73.310;2022-08-01T13:54:37;21.15;59.25
73568;SHT30;61847;54.994;73.310;2022-08-01T13:57:04;21.17;59.17
73568;SHT30;61847;54.994;73.310;2022-08-01T13:59:30;21.08;59.55
73568;SHT30;61847;54.994;73.310;2022-08-01T14:01:56;21.03;59.75
73568;SHT30;61847;54.994;73.310;2022-08-01T14:04:23;21.11;59.91
73568;SHT30;61847;54.994;73.310;2022-08-01T14:06:49;21.00;60.70
73568;SHT30;61847;54.994;73.310;2022-08-01T14:09:15;20.87;60.59
73568;SHT30;61847;54.994;73.310;2022-08-01T14:11:43;20.96;60.90
73568;SHT30;61847;54.994;73.310;2022-08-01T14:14:09;20.87;61.27
73568;SHT30;61847;54.994;73.310;2022-08-01T14:16:35;20.87;60.96
73568;SHT30;61847;54.994;73.310;2022-08-01T14:19:04;20.97;60.38
73568;SHT30;61847;54.994;73.310;2022-08-01T14:21:30;20.89;60.53
73568;SHT30;61847;54.994;73.310;2022-08-01T14:23:57;20.96;60.59
73568;SHT30;61847;54.994;73.310;2022-08-01T14:26:24;20.97;60.60
73568;SHT30;61847;54.994;73.310;2022-08-01T14:28:50;20.97;60.94
73568;SHT30;61847;54.994;73.310;2022-08-01T14:31:19;20.87;60.88
73568;SHT30;61847;54.994;73.310;2022-08-01T14:33:45;20.92;60.76
73568;SHT30;61847;54.994;73.310;2022-08-01T14:36:12;20.87;60.99
73568;SHT30;61847;54.994;73.310;2022-08-01T14:38:38;20.72;61.08
73568;SHT30;61847;54.994;73.310;2022-08-01T14:41:05;20.53;61.56
73568;SHT30;61847;54.994;73.310;2022-08-01T14:43:32;20.66;61.23
73568;SHT30;61847;54.994;73.310;2022-08-01T14:45:59;20.56;61.49
73568;SHT30;61847;54.994;73.310;2022-08-01T14:48:25;20.46;61.42
73568;SHT30;61847;54.994;73.310;2022-08-01T14:50:52;20.36;61.50
73568;SHT30;61847;54.994;73.310;2022-08-01T14:53:18;20.28;62.34
73568;SHT30;61847;54.994;73.310;2022-08-01T14:55:45;20.34;62.53
73568;SHT30;61847;54.994;73.310;2022-08-01T14:58:12;20.34;62.37
73568;SHT30;61847;54.994;73.310;2022-08-01T15:00:40;20.28;62.56
73568;SHT30;61847;54.994;73.310;2022-08-01T15:03:17;20.29;62.71
73568;SHT30;61847;54.994;73.310;2022-08-01T15:05:43;20.24;63.20
73568;SHT30;61847;54.994;73.310;2022-08-01T15:08:13;20.22;63.21
73568;SHT30;61847;54.994;73.310;2022-08-01T15:10:40;20.22;63.23
73568;SHT30;61847;54.994;73.310;2022-08-01T15:13:07;20.08;63.69
73568;SHT30;61847;54.994;73.310;2022-08-01T15:15:36;20.13;63.87
73568;SHT30;61847;54.994;73.310;2022-08-01T15:18:08;20.11;63.80
73568;SHT30;61847;54.994;73.310;2022-08-01T15:20:38;20.04;64.14
73568;SHT30;61847;54.994;73.310;2022-08-01T15:23:05;20.13;63.97
73568;SHT30;61847;54.994;73.310;2022-08-01T15:25:32;19.98;64.48
73568;SHT30;61847;54.994;73.310;2022-08-01T15:27:58;19.98;64.57
73568;SHT30;61847;54.994;73.310;2022-08-01T15:30:27;19.96;64.83
73568;SHT30;61847;54.994;73.310;2022-08-01T15:32:55;19.91;64.78
73568;SHT30;61847;54.994;73.310;2022-08-01T15:35:21;19.89;64.88
73568;SHT30;61847;54.994;73.310;2022-08-01T15:37:48;19.71;65.43
73568;SHT30;61847;54.994;73.310;2022-08-01T15:40:15;19.58;65.85
73568;SHT30;61847;54.994;73.310;2022-08-01T15:42:42;19.53;66.38
73568;SHT30;61847;54.994;73.310;2022-08-01T15:45:08;19.45;66.46
73568;SHT30;61847;54.994;73.310;2022-08-01T15:47:35;19.45;66.66
73568;SHT30;61847;54.994;73.310;2022-08-01T15:50:02;19.42;66.76
73568;SHT30;61847;54.994;73.310;2022-08-01T15:52:30;19.35;66.98
73568;SHT30;61847;54.994;73.310;2022-08-01T15:54:57;19.31;66.97
73568;SHT30;61847;54.994;73.310;2022-08-01T15:57:24;19.22;67.73
73568;SHT30;61847;54.994;73.310;2022-08-01T15:59:51;19.01;67.95
73568;SHT30;61847;54.994;73.310;2022-08-01T16:02:18;19.02;67.99
73568;SHT30;61847;54.994;73.310;2022-08-01T16:04:44;18.98;68.30
73568;SHT30;61847;54.994;73.310;2022-08-01T16:07:11;18.97;68.10
73568;SHT30;61847;54.994;73.310;2022-08-01T16:09:38;18.90;68.42
73568;SHT30;61847;54.994;73.310;2022-08-01T16:12:04;18.77;68.96
73568;SHT30;61847;54.994;73.310;2022-08-01T16:14:32;18.83;68.71